• Join FlightAware (Why Join?)
  • Login
  • US Flag 
06:21PM EDT


 

Airport Tracker/Info


-or-


 

Live Flight TrackerFlight Track Log ✈ UAL3272 ✈ 17-Apr-2013 ✈ CYYZ - KCLE

Flight Track Log - Related Links

Times and Time Zones

All times are in EDT time to prevent confusion due to time zone crossing. See the UAL3272 flight status page for this flight to view local times or setup timezone preferences in your user account.

Time Position Orientation Groundspeed Altitude Reporting Facility
EDT Latitude Longitude Course Direction KTS MPH feet Rate Location/Type
06:33AM 43.6833 -79.5333 186° South 160 184 2,700  Level Toronto Center
06:34AM 43.7333 -79.5000 26° Northeast 200 230 5,400 2,220 Climbing Toronto Center
06:35AM 43.6833 -79.4000 125° Southeast 270 311 7,200 2,100 Climbing Toronto Center
06:36AM 43.6167 -79.3500 151° Southeast 280 322 9,600 2,280 Climbing Toronto Center
06:37AM 43.5667 -79.4333 230° Southwest 270 311 11,800 1,800 Climbing Toronto Center
06:38AM 43.5000 -79.5000 216° Southwest 300 345 13,300 1,500 Climbing Toronto Center
06:39AM 43.0799 -79.7362 186° South  Level FlightAware Approximate
06:39AM 43.4333 -79.5667 216° Southwest 330 380 14,800  Level Toronto Center
06:40AM 43.3500 -79.6333 210° Southwest 330 380 16,900 1,620 Climbing Toronto Center
06:41AM 43.2667 -79.7000 210° Southwest 340 391 18,100 900 Climbing Toronto Center
06:42AM 43.1667 -79.7500 200° South 370 426 18,800 960 Climbing Toronto Center
06:43AM 43.0667 -79.8000 200° South 380 437 20,100 1,260 Climbing Toronto Center
06:44AM 42.9667 -79.8333 194° South 390 449 21,400 900 Climbing Toronto Center
06:45AM 42.8500 -79.8833 197° South 400 460 22,000 300 Climbing Toronto Center
06:46AM 42.7500 -79.9333 200° South 420 483 22,000  Level Toronto Center
06:47AM 42.6333 -80.0000 203° Southwest 430 495 22,000  Level Toronto Center
06:48AM 42.5333 -80.0333 194° South 390 449 22,000  Level Toronto Center
06:49AM 42.4333 -80.0833 200° South 370 426 22,000  Level Toronto Center
06:50AM 42.3333 -80.1333 200° South 360 414 22,000  Level Toronto Center
06:51AM 42.2500 -80.1667 196° South 360 414 22,000  Level Toronto Center
06:52AM 42.1500 -80.2167 200° South 360 414 22,000  Level Toronto Center
06:53AM 42.0500 -80.2667 200° South 360 414 22,000  Level Toronto Center
06:54AM 41.9833 -80.3333 217° Southwest 350 403 22,000  Level Toronto Center
06:55AM 41.8975 -80.4631 228° Southwest 358 412 22,000 -480 Level Cleveland Center
06:56AM 41.8328 -80.5525 226° Southwest 353 406 21,000 -1,380 Descending Cleveland Center
06:57AM 41.7806 -80.6278 227° Southwest 333 383 19,300 -1,680 Descending Cleveland Center
06:58AM 41.7222 -80.7083 226° Southwest 314 361 17,700 -1,800 Descending Cleveland Center
06:59AM 41.6617 -80.7917 226° Southwest 309 356 15,700 -1,920 Descending Cleveland Center
07:00AM 41.6053 -80.8719 227° Southwest 304 350 13,900 -1,920 Descending Cleveland Center
07:01AM 41.5675 -80.9328 230° Southwest 274 315 12,500 -1,620 Descending Cleveland Center
07:01AM 41.5611 -80.9522 246° West 290 334 12,300 -1,500 Descending Cleveland Center
07:02AM 41.5464 -81.0214 254° West 260 299 11,200 -1,620 Descending Cleveland Center
07:02AM 41.5422 -81.0464 257° West 270 311 10,700 -1,140 Descending Cleveland Center
07:03AM 41.5294 -81.1131 256° West 259 298 10,100 -720 Descending Cleveland Center
07:03AM 41.5186 -81.1461 246° West 264 304 10,000  Descending Cleveland Center
07:04AM 41.5058 -81.2264 258° West 257 296 10,100  Climbing Cleveland Center
07:05AM 41.4969 -81.3122 262° West 273 314 10,000 -120 Descending Cleveland Center
07:05AM 41.4925 -81.3372 257° West 264 304 10,000 -180 Level Cleveland Center
07:06AM 41.4839 -81.3925 258° West 267 307 9,900 -600 Descending Cleveland Center
07:06AM 41.4794 -81.4311 261° West 269 310 9,400 -1,260 Descending Cleveland Center
07:07AM 41.4728 -81.4756 259° West 247 284 8,800 -1,200 Descending Cleveland Center
07:07AM 41.4683 -81.5225 263° West 263 303 8,200 -1,260 Descending Cleveland Center
07:08AM 41.4594 -81.5806 258° West 254 292 7,300 -1,140 Descending Cleveland Center
07:08AM 41.4550 -81.6164 261° West 257 296 7,100 -240 Descending Cleveland Center
07:09AM 41.4397 -81.6772 251° West 263 303 7,100 -120 Level Cleveland Center
07:09AM 41.4272 -81.6992 233° Southwest 257 296 7,000 -120 Descending Cleveland Center
07:10AM 41.3911 -81.7567 230° Southwest 268 308 7,000  Level Cleveland Center
07:10AM 41.3783 -81.7758 228° Southwest 264 304 7,000 -900 Level Cleveland Center
07:11AM 41.3403 -81.8275 226° Southwest 256 295 6,100 -1,560 Descending Cleveland Center
07:12AM 41.2978 -81.9042 234° Southwest 243 280 4,200 -1,560 Descending Cleveland Center
07:13AM 41.3033 -81.9650 277° West 249 287 3,200 -780 Descending Cleveland Center
07:14AM 41.3450 -81.9606 North 156 180 2,900 -720 Descending Cleveland Center
07:15AM 41.3683 -81.9222 51° Northeast 110 127 1,800 -900 Descending Cleveland Center
07:16AM 41.3917 -81.8894 46° Northeast 119 137 1,100 -720 Descending Cleveland Center